Time;durP1;ratioP1;P1;durP2;ratioP2;P2;SDS_P1;SDS_P2;PMS_P1;PMS_P2;Temp;Humidity;BMP_temperature;BMP_pressure;BME280_temperature;BME280_humidity;BME280_pressure;Samples;Min_cycle;Max_cycle;Signal;HPM_P1;HPM_P2
2021/12/18 00:01:33;;;;;;;52.40;31.17;;;;;;;6.79;84.97;102166.81;5035450;28;20045;-55
2021/12/18 00:04:00;;;;;;;54.97;32.10;;;;;;;6.77;84.79;102164.16;5035751;28;20390;-55
2021/12/18 00:06:29;;;;;;;52.10;30.42;;;;;;;6.77;84.54;102160.69;5018032;28;20494;-55
2021/12/18 00:08:58;;;;;;;51.08;31.52;;;;;;;6.77;84.56;102160.69;5035622;28;20040;-54
2021/12/18 00:11:27;;;;;;;49.20;30.83;;;;;;;6.78;84.98;102157.31;5018712;28;20124;-55
2021/12/18 00:13:53;;;;;;;53.63;31.58;;;;;;;6.77;84.51;102159.00;5035999;28;20570;-55
2021/12/18 00:16:18;;;;;;;55.22;32.38;;;;;;;6.76;84.45;102164.06;5035483;28;20033;-55
2021/12/18 00:18:46;;;;;;;53.22;30.92;;;;;;;6.77;84.82;102155.56;5035537;28;20036;-54
2021/12/18 00:21:17;;;;;;;53.72;32.72;;;;;;;6.76;84.29;102151.19;5001621;28;20041;-55
2021/12/18 00:23:43;;;;;;;52.75;30.10;;;;;;;6.76;84.53;102152.06;5017789;28;20364;-55
2021/12/18 00:26:08;;;;;;;47.03;29.70;;;;;;;6.75;84.72;102149.41;5035447;28;20543;-55
2021/12/18 00:28:36;;;;;;;49.00;28.60;;;;;;;6.75;84.89;102146.81;5035275;28;20033;-55
2021/12/18 00:31:05;;;;;;;54.40;32.75;;;;;;;6.75;84.66;102144.25;5035243;28;20048;-54
2021/12/18 00:33:31;;;;;;;53.67;31.40;;;;;;;6.74;84.52;102143.34;5035284;28;20491;-54
2021/12/18 00:35:59;;;;;;;53.28;31.08;;;;;;;6.74;84.45;102139.88;5035175;28;20041;-54
2021/12/18 00:38:28;;;;;;;46.40;30.00;;;;;;;6.75;84.69;102132.22;5001094;28;20049;-54
2021/12/18 00:41:36;;;;;;;51.75;30.10;;;;;;;6.74;84.39;102130.44;5035387;28;20037;-55
2021/12/18 00:44:04;;;;;;;53.83;30.65;;;;;;;6.74;84.62;102129.56;5033895;28;20057;-55
2021/12/18 00:46:40;;;;;;;49.08;28.67;;;;;;;6.73;84.41;102136.38;5017418;28;20037;-55
2021/12/18 00:49:11;;;;;;;50.88;31.27;;;;;;;6.73;84.78;102138.97;5000644;28;20431;-55
2021/12/18 00:51:40;;;;;;;47.60;29.15;;;;;;;6.73;84.69;102143.25;5017422;28;20055;-54
2021/12/18 00:54:08;;;;;;;47.25;28.88;;;;;;;6.72;84.11;102144.91;5017134;28;20486;-54
2021/12/18 00:56:39;;;;;;;51.25;29.67;;;;;;;6.72;84.31;102150.06;5017253;28;20034;-55
2021/12/18 00:59:07;;;;;;;48.63;30.30;;;;;;;6.72;84.46;102155.22;5000939;28;20035;-55
2021/12/18 01:01:36;;;;;;;52.08;30.42;;;;;;;6.70;84.59;102152.56;5034993;28;20045;-54
2021/12/18 01:04:04;;;;;;;54.72;29.25;;;;;;;6.71;84.03;102156.00;5034581;28;20056;-54
2021/12/18 01:06:30;;;;;;;46.28;29.92;;;;;;;6.70;84.50;102152.56;5000244;28;20045;-54
2021/12/18 01:08:57;;;;;;;50.40;30.45;;;;;;;6.69;84.29;102153.34;5034393;28;20037;-54
2021/12/18 01:11:34;;;;;;;49.97;29.35;;;;;;;6.68;84.64;102154.13;5034686;28;20044;-55
2021/12/18 01:25:03;;;;;;;52.20;28.92;;;;;;;6.66;84.40;102149.69;5034558;28;20033;-54
2021/12/18 01:27:29;;;;;;;52.22;30.95;;;;;;;6.64;84.51;102146.09;5000373;28;20037;-55
2021/12/18 01:29:58;;;;;;;45.60;28.02;;;;;;;6.63;84.37;102145.19;5034152;28;20042;-55
2021/12/18 01:32:25;;;;;;;49.50;29.73;;;;;;;6.63;84.48;102146.91;5000323;28;20030;-55
2021/12/18 01:34:50;;;;;;;51.17;30.63;;;;;;;6.61;84.48;102149.38;5016554;28;20049;-55
2021/12/18 01:37:21;;;;;;;51.20;29.42;;;;;;;6.59;84.27;102140.66;5034074;28;20372;-54
2021/12/18 01:39:47;;;;;;;54.78;30.15;;;;;;;6.61;84.00;102146.81;4999923;28;20041;-54
2021/12/18 01:53:34;;;;;;;52.25;30.83;;;;;;;6.53;83.98;102145.41;5033735;28;20120;-55
2021/12/18 01:55:59;;;;;;;57.35;33.28;;;;;;;6.53;84.13;102150.56;4999982;28;20041;-54
2021/12/18 01:58:28;;;;;;;51.70;30.70;;;;;;;6.53;84.41;102153.13;5033681;28;20043;-54
2021/12/18 02:00:56;;;;;;;54.55;32.72;;;;;;;6.52;84.22;102153.91;5000298;28;20045;-54
2021/12/18 02:03:24;;;;;;;52.58;30.40;;;;;;;6.52;84.66;102147.09;5033654;28;20089;-54
2021/12/18 02:05:53;;;;;;;55.15;31.80;;;;;;;6.52;84.30;102148.75;4999623;28;20057;-55
2021/12/18 02:08:21;;;;;;;53.90;30.38;;;;;;;6.51;84.05;102152.13;5015848;28;20379;-55
2021/12/18 02:14:05;;;;;;;54.40;30.33;;;;;;;6.52;84.42;102154.81;5033395;28;20061;-55
2021/12/18 02:21:55;;;;;;;58.20;30.33;;;;;;;6.50;84.20;102146.09;5033581;28;20044;-54
2021/12/18 02:24:24;;;;;;;51.42;29.33;;;;;;;6.52;84.14;102148.75;5015889;28;20029;-54
2021/12/18 02:26:50;;;;;;;52.50;32.20;;;;;;;6.52;84.25;102148.75;5015860;28;20067;-56
2021/12/18 02:29:16;;;;;;;52.97;30.90;;;;;;;6.51;84.30;102157.28;5033450;28;20391;-55
2021/12/18 02:31:44;;;;;;;51.90;30.58;;;;;;;6.50;84.24;102145.19;5033552;28;20401;-56
2021/12/18 02:34:25;;;;;;;53.67;31.77;;;;;;;6.49;84.25;102149.47;4999306;28;20482;-54
2021/12/18 02:37:00;;;;;;;51.85;30.63;;;;;;;6.50;84.28;102153.81;5033244;28;20029;-55
2021/12/18 02:42:18;;;;;;;53.38;31.02;;;;;;;6.50;84.18;102146.09;5033674;28;20042;-55
2021/12/18 02:44:46;;;;;;;50.88;30.08;;;;;;;6.50;84.26;102140.94;5016171;28;20172;-55
2021/12/18 02:47:13;;;;;;;56.80;31.48;;;;;;;6.49;84.04;102139.16;5033219;28;20033;-54
2021/12/18 02:49:48;;;;;;;55.47;32.05;;;;;;;6.50;84.24;102140.94;5033011;28;20479;-54
2021/12/18 02:52:14;;;;;;;58.67;31.20;;;;;;;6.49;83.90;102134.00;5033145;28;20033;-54
2021/12/18 02:54:45;;;;;;;51.28;30.38;;;;;;;6.51;84.07;102132.44;5015761;28;20064;-55
2021/12/18 02:57:14;;;;;;;51.05;30.92;;;;;;;6.51;84.16;102139.25;4998931;28;20402;-54
2021/12/18 02:59:51;;;;;;;59.45;31.08;;;;;;;6.51;84.17;102136.66;4999093;28;20038;-54
2021/12/18 03:02:18;;;;;;;60.95;32.83;;;;;;;6.49;83.78;102125.38;5033103;28;20057;-55
2021/12/18 03:04:48;;;;;;;51.72;31.92;;;;;;;6.48;84.17;102121.00;4999154;28;20048;-56
2021/12/18 03:07:16;;;;;;;53.50;29.88;;;;;;;6.47;84.27;102124.38;5033726;28;20157;-54
2021/12/18 03:25:58;;;;;;;60.05;33.75;;;;;;;6.37;83.76;102113.47;5015864;28;20037;-54
2021/12/18 03:28:26;;;;;;;56.60;31.98;;;;;;;6.36;84.30;102116.84;5032943;28;20048;-54
2021/12/18 03:30:55;;;;;;;60.95;32.05;;;;;;;6.34;84.08;102114.97;5035358;28;20416;-54
2021/12/18 03:33:25;;;;;;;56.17;33.55;;;;;;;6.33;84.28;102121.78;5018367;28;20395;-54
2021/12/18 03:35:51;;;;;;;64.20;36.78;;;;;;;6.32;84.22;102116.53;5002304;28;20069;-55
2021/12/18 03:38:16;;;;;;;60.53;35.33;;;;;;;6.32;83.94;102124.25;5036309;28;20069;-55
2021/12/18 03:40:47;;;;;;;61.35;33.38;;;;;;;6.32;83.72;102119.13;5036495;28;20033;-54
2021/12/18 03:43:13;;;;;;;58.10;33.28;;;;;;;6.30;84.32;102126.75;5018857;28;20504;-54
2021/12/18 03:45:41;;;;;;;62.47;34.80;;;;;;;6.31;83.75;102125.06;5036339;28;20112;-54
2021/12/18 03:48:09;;;;;;;67.07;35.22;;;;;;;6.32;83.73;102135.44;5036021;28;20155;-55
2021/12/18 03:50:35;;;;;;;59.25;35.95;;;;;;;6.32;84.35;102129.41;5036051;28;20029;-54
2021/12/18 03:53:01;;;;;;;65.53;35.33;;;;;;;6.32;83.89;102122.56;5036041;28;20087;-55
2021/12/18 03:55:26;;;;;;;63.60;35.17;;;;;;;6.31;84.26;102138.81;5018277;28;20044;-55
2021/12/18 03:57:57;;;;;;;65.70;37.65;;;;;;;6.32;84.11;102145.75;5035802;28;20037;-54
2021/12/18 04:00:23;;;;;;;62.78;35.72;;;;;;;6.32;83.93;102132.88;5035802;28;20069;-54
2021/12/18 04:02:52;;;;;;;68.20;36.83;;;;;;;6.32;84.00;102135.44;5014688;28;20077;-55
2021/12/18 04:05:20;;;;;;;64.65;37.28;;;;;;;6.33;84.30;102134.66;5015999;28;20034;-55
2021/12/18 04:07:50;;;;;;;65.43;37.08;;;;;;;6.33;84.49;102137.22;4998567;28;20495;-54
2021/12/18 04:10:20;;;;;;;67.50;39.45;;;;;;;6.34;83.80;102133.00;4998439;28;20034;-55
2021/12/18 04:12:46;;;;;;;66.85;38.15;;;;;;;6.33;84.32;102137.22;5016129;28;20030;-54
2021/12/18 04:15:12;;;;;;;71.70;38.03;;;;;;;6.33;84.31;102129.50;4998490;28;20041;-54
2021/12/18 04:17:38;;;;;;;70.55;39.45;;;;;;;6.32;83.98;102135.44;5015841;28;20395;-54
2021/12/18 04:20:07;;;;;;;71.50;39.75;;;;;;;6.33;83.99;102133.78;5014632;28;20574;-55
2021/12/18 04:22:33;;;;;;;71.05;39.50;;;;;;;6.34;83.71;102135.56;4998455;28;20069;-54
2021/12/18 04:24:58;;;;;;;66.20;37.05;;;;;;;6.35;83.77;102129.63;5015778;28;20478;-54
2021/12/18 04:27:25;;;;;;;68.75;37.20;;;;;;;6.36;84.38;102128.84;5014596;28;20498;-55
2021/12/18 04:29:53;;;;;;;76.75;39.45;;;;;;;6.36;84.33;102131.41;5015710;28;20084;-54
2021/12/18 04:32:18;;;;;;;75.22;38.42;;;;;;;6.36;83.94;102126.25;5014377;28;20060;-55
2021/12/18 04:34:44;;;;;;;65.38;36.67;;;;;;;6.36;83.95;102129.72;5014778;28;20487;-55
2021/12/18 04:37:11;;;;;;;76.30;39.45;;;;;;;6.36;83.74;102124.56;5015392;28;20033;-54
2021/12/18 04:39:37;;;;;;;73.45;40.58;;;;;;;6.38;83.99;102129.84;5015575;28;20042;-54
2021/12/18 04:42:03;;;;;;;71.85;39.80;;;;;;;6.37;84.23;102126.34;5014525;28;20038;-54
2021/12/18 04:44:28;;;;;;;79.88;38.88;;;;;;;6.38;84.27;102135.00;5015333;28;20046;-54
2021/12/18 04:46:56;;;;;;;74.10;40.00;;;;;;;6.37;83.66;102134.06;5015294;28;20033;-54
2021/12/18 04:49:22;;;;;;;79.63;40.00;;;;;;;6.39;84.60;102131.59;5013756;28;20089;-54
2021/12/18 04:51:47;;;;;;;75.78;39.70;;;;;;;6.38;83.88;102128.13;5015421;28;20518;-55
2021/12/18 04:54:15;;;;;;;77.25;40.70;;;;;;;6.38;83.75;102133.28;5015161;28;20037;-55
2021/12/18 04:56:47;;;;;;;78.03;38.85;;;;;;;6.37;84.07;102128.06;5014952;28;20026;-55
2021/12/18 04:59:15;;;;;;;76.93;39.03;;;;;;;6.37;83.74;102126.34;4997934;28;20128;-55
2021/12/18 05:01:40;;;;;;;76.28;39.88;;;;;;;6.37;83.76;102121.19;5013437;28;20053;-55
2021/12/18 05:04:10;;;;;;;82.93;39.75;;;;;;;6.37;83.63;102128.94;5013864;28;20534;-55
2021/12/18 05:06:39;;;;;;;75.00;39.22;;;;;;;6.36;84.31;102123.69;4998006;28;20048;-54
2021/12/18 05:09:05;;;;;;;78.35;40.05;;;;;;;6.36;84.21;102129.72;5014664;28;20034;-54
2021/12/18 05:11:33;;;;;;;74.05;40.05;;;;;;;6.37;84.36;102133.19;5014765;28;20071;-54
2021/12/18 05:13:59;;;;;;;85.38;41.80;;;;;;;6.37;84.16;102134.06;4997284;28;20117;-54
2021/12/18 05:16:24;;;;;;;74.90;37.88;;;;;;;6.39;83.98;102131.59;5014694;28;20068;-54
2021/12/18 05:18:53;;;;;;;87.30;40.92;;;;;;;6.37;83.94;102126.34;5014688;28;20034;-55
2021/12/18 05:21:21;;;;;;;79.63;39.55;;;;;;;6.37;84.24;102131.50;5014513;28;20065;-55
2021/12/18 05:23:49;;;;;;;80.95;40.58;;;;;;;6.34;84.14;102133.88;5013295;28;20096;-55
2021/12/18 05:26:15;;;;;;;83.25;41.75;;;;;;;6.35;84.17;102137.34;5014608;28;20038;-54
2021/12/18 05:28:41;;;;;;;88.05;41.38;;;;;;;6.37;84.11;102140.94;4997005;28;20038;-54
2021/12/18 05:31:09;;;;;;;81.38;39.65;;;;;;;6.35;83.99;102145.97;5014409;28;20042;-54
2021/12/18 05:33:36;;;;;;;88.30;40.20;;;;;;;6.34;84.18;102133.88;5014180;28;20454;-55
2021/12/18 05:36:13;;;;;;;79.18;36.55;;;;;;;6.33;83.75;102137.22;5013127;28;20030;-54
2021/12/18 05:38:39;;;;;;;80.85;38.33;;;;;;;6.31;84.13;102133.66;5013239;28;20048;-54
2021/12/18 05:41:04;;;;;;;74.13;37.50;;;;;;;6.32;83.98;102138.03;5013080;28;20037;-55
2021/12/18 05:43:30;;;;;;;79.20;38.10;;;;;;;6.33;84.02;102137.22;5013058;28;20484;-55
2021/12/18 05:45:55;;;;;;;89.15;41.35;;;;;;;6.33;84.04;102147.53;5014243;28;20037;-55
2021/12/18 05:48:23;;;;;;;78.05;38.15;;;;;;;6.32;83.96;102150.03;5012732;28;20030;-54
2021/12/18 05:50:49;;;;;;;80.45;39.35;;;;;;;6.32;83.80;102145.75;5014125;28;20072;-55
2021/12/18 05:53:14;;;;;;;80.47;38.58;;;;;;;6.32;84.11;102140.59;5013807;28;20506;-54
2021/12/18 05:55:40;;;;;;;77.53;36.38;;;;;;;6.33;84.17;102139.81;5014099;28;20044;-55
2021/12/18 05:58:08;;;;;;;91.65;40.40;;;;;;;6.33;83.58;102139.81;5013975;28;20042;-55
2021/12/18 06:00:34;;;;;;;77.50;38.58;;;;;;;6.35;84.25;102145.06;4996436;28;20049;-54
2021/12/18 06:03:02;;;;;;;84.72;37.15;;;;;;;6.34;84.17;102130.41;5012467;28;20050;-54
2021/12/18 06:05:31;;;;;;;80.22;38.33;;;;;;;6.33;84.13;102134.66;4996650;28;20041;-55
2021/12/18 06:08:01;;;;;;;87.07;37.33;;;;;;;6.31;84.10;102131.09;4996171;28;20157;-54
2021/12/18 06:10:33;;;;;;;83.20;37.35;;;;;;;6.33;84.28;102126.06;5013823;28;20061;-55
2021/12/18 06:13:07;;;;;;;82.95;37.83;;;;;;;6.32;84.11;102135.44;5014099;28;20112;-54
2021/12/18 06:15:34;;;;;;;86.40;38.70;;;;;;;6.33;84.26;102137.22;5012422;28;20042;-54
2021/12/18 06:18:06;;;;;;;81.63;37.35;;;;;;;6.33;84.13;102139.81;5012645;28;20034;-54
2021/12/18 06:20:35;;;;;;;82.90;37.17;;;;;;;6.33;83.80;102139.81;5012725;28;20483;-54
2021/12/18 06:23:04;;;;;;;83.65;38.60;;;;;;;6.32;83.90;102142.28;5012634;28;20034;-54
2021/12/18 06:25:35;;;;;;;79.93;37.88;;;;;;;6.33;83.99;102144.97;5013572;28;20038;-54
2021/12/18 06:28:04;;;;;;;80.93;38.25;;;;;;;6.32;84.16;102147.44;4996875;28;20073;-58
2021/12/18 06:30:31;;;;;;;87.95;37.03;;;;;;;6.32;84.10;102153.47;5012494;28;20034;-54
2021/12/18 06:33:00;;;;;;;78.85;36.42;;;;;;;6.31;83.94;102148.22;5012466;28;20096;-54
2021/12/18 06:35:29;;;;;;;79.55;36.92;;;;;;;6.30;84.00;102149.00;4996847;28;20057;-54
2021/12/18 06:38:05;;;;;;;75.40;35.53;;;;;;;6.31;84.05;102143.06;4995813;28;20037;-54
2021/12/18 06:40:34;;;;;;;81.00;37.47;;;;;;;6.32;83.89;102150.91;5012113;28;20069;-54
2021/12/18 06:43:04;;;;;;;78.22;36.47;;;;;;;6.31;84.04;102149.09;5013318;28;20060;-54
2021/12/18 06:45:30;;;;;;;88.35;37.97;;;;;;;6.30;83.67;102147.34;5013414;28;20038;-54
2021/12/18 06:47:58;;;;;;;75.32;36.90;;;;;;;6.31;84.16;102153.38;5013480;28;20116;-54
2021/12/18 06:50:23;;;;;;;86.88;35.53;;;;;;;6.31;84.16;102151.69;5013320;28;20069;-54
2021/12/18 06:52:49;;;;;;;79.93;37.13;;;;;;;6.31;83.66;102156.84;5011993;28;20077;-55
2021/12/18 06:55:17;;;;;;;90.68;36.03;;;;;;;6.32;83.78;102147.44;5013244;28;20399;-55
2021/12/18 06:57:43;;;;;;;72.10;35.03;;;;;;;6.34;84.25;102151.91;4996074;28;20443;-54
2021/12/18 07:00:14;;;;;;;76.32;36.40;;;;;;;6.33;84.17;102152.69;5013238;28;20030;-55
2021/12/18 07:02:40;;;;;;;73.38;35.08;;;;;;;6.34;83.75;102153.59;5025099;28;20152;-55
2021/12/18 07:05:07;;;;;;;76.47;37.55;;;;;;;6.33;84.15;102155.25;5016702;28;20107;-55
2021/12/18 07:07:33;;;;;;;77.13;36.78;;;;;;;6.34;84.04;102158.75;5019137;28;20529;-54
2021/12/18 07:10:03;;;;;;;72.40;35.90;;;;;;;6.34;84.01;102157.03;5036620;28;20030;-55
2021/12/18 07:12:28;;;;;;;71.88;33.03;;;;;;;6.32;83.76;102161.19;5019091;28;20041;-55
2021/12/18 07:14:56;;;;;;;75.50;36.75;;;;;;;6.34;84.21;102163.91;5036896;28;20032;-55
2021/12/18 07:17:22;;;;;;;84.55;37.85;;;;;;;6.34;83.93;102158.75;5036744;28;20037;-55
2021/12/18 07:19:50;;;;;;;75.63;37.33;;;;;;;6.33;83.56;102157.84;5036566;28;20032;-54
2021/12/18 07:22:17;;;;;;;79.00;37.80;;;;;;;6.34;84.30;102161.31;5036303;28;20041;-54
2021/12/18 07:24:46;;;;;;;82.82;36.85;;;;;;;6.34;83.96;102153.59;5018792;28;20034;-54
2021/12/18 07:27:11;;;;;;;65.97;34.28;;;;;;;6.33;83.88;102155.25;5018803;28;20043;-55
2021/12/18 07:29:42;;;;;;;79.20;35.67;;;;;;;6.34;83.74;102153.59;5036581;28;20025;-54
2021/12/18 07:32:08;;;;;;;83.68;37.28;;;;;;;6.33;83.95;102150.09;5002515;28;20092;-55
2021/12/18 07:34:38;;;;;;;73.18;36.00;;;;;;;6.32;83.52;102150.03;5018956;28;20478;-54
2021/12/18 07:37:04;;;;;;;74.63;34.60;;;;;;;6.32;84.26;102145.75;5036219;28;20037;-54
2021/12/18 07:39:30;;;;;;;71.88;33.33;;;;;;;6.32;83.73;102145.75;5036496;28;20067;-55
2021/12/18 07:41:55;;;;;;;72.30;34.55;;;;;;;6.33;83.99;102147.53;5018863;28;20514;-54
2021/12/18 07:44:21;;;;;;;69.80;34.85;;;;;;;6.33;83.70;102152.69;5018608;28;20398;-54
2021/12/18 07:46:46;;;;;;;67.05;33.08;;;;;;;6.33;83.89;102146.66;5035968;28;20091;-54
2021/12/18 07:49:12;;;;;;;70.25;33.90;;;;;;;6.34;83.81;102151.03;5036031;28;20033;-55
2021/12/18 07:51:38;;;;;;;70.43;32.88;;;;;;;6.31;83.79;102146.53;5036186;28;20042;-54
2021/12/18 07:54:05;;;;;;;67.55;33.42;;;;;;;6.32;84.16;102156.03;5035872;28;20434;-55
2021/12/18 07:56:32;;;;;;;73.35;33.03;;;;;;;6.33;83.96;102147.53;5018287;28;20501;-54
2021/12/18 07:58:57;;;;;;;73.43;33.38;;;;;;;6.31;84.12;102150.81;5001954;28;20088;-54
2021/12/18 08:01:23;;;;;;;70.90;32.95;;;;;;;6.31;83.80;102143.97;5035687;28;20072;-54
2021/12/18 08:03:49;;;;;;;62.75;31.42;;;;;;;6.32;83.93;102150.91;5035889;28;20029;-54
2021/12/18 08:06:15;;;;;;;66.07;31.45;;;;;;;6.34;84.25;102153.59;5035906;28;20037;-55
2021/12/18 08:08:41;;;;;;;72.32;32.70;;;;;;;6.32;84.42;102156.03;5001803;28;20580;-54
2021/12/18 08:11:09;;;;;;;62.78;28.52;;;;;;;6.33;84.49;102150.09;5018031;28;20168;-55
2021/12/18 08:13:34;;;;;;;62.20;31.50;;;;;;;6.28;84.35;102148.94;5018068;28;20038;-54
2021/12/18 08:15:59;;;;;;;63.15;29.20;;;;;;;6.31;84.35;102158.53;5035552;28;20040;-55
2021/12/18 08:18:25;;;;;;;64.53;30.58;;;;;;;6.30;83.79;102155.06;5035619;28;20083;-54
2021/12/18 08:20:51;;;;;;;66.28;32.08;;;;;;;6.30;84.32;102157.66;5035414;28;20506;-54
2021/12/18 08:23:19;;;;;;;67.65;31.15;;;;;;;6.30;84.16;102159.31;5018022;28;20037;-55
2021/12/18 08:25:46;;;;;;;58.13;31.02;;;;;;;6.29;84.03;102158.44;5018328;28;20041;-54
2021/12/18 08:28:11;;;;;;;64.43;31.10;;;;;;;6.29;84.08;102155.88;5001772;28;20151;-54
2021/12/18 08:30:41;;;;;;;59.80;28.85;;;;;;;6.29;84.26;102157.53;5035450;28;20068;-55
2021/12/18 08:33:09;;;;;;;64.07;29.98;;;;;;;6.29;83.99;102162.69;5035825;28;20229;-54
2021/12/18 08:35:35;;;;;;;66.32;31.10;;;;;;;6.26;83.82;102160.81;5001430;28;20044;-54
2021/12/18 08:38:03;;;;;;;63.42;29.08;;;;;;;6.29;83.87;102160.09;5001159;28;20037;-54
2021/12/18 08:40:30;;;;;;;60.25;29.30;;;;;;;6.29;84.06;102161.03;5001394;28;20041;-54
2021/12/18 08:42:56;;;;;;;58.70;30.23;;;;;;;6.29;83.76;102161.03;5035075;28;20041;-55
2021/12/18 08:45:21;;;;;;;64.10;29.95;;;;;;;6.29;83.99;102166.16;5035061;28;20036;-54
2021/12/18 08:47:47;;;;;;;58.08;26.52;;;;;;;6.30;83.74;102154.16;5034675;28;20048;-54
2021/12/18 08:50:17;;;;;;;56.97;28.40;;;;;;;6.29;84.13;102160.09;5017450;28;20171;-54
2021/12/18 08:52:44;;;;;;;63.60;28.25;;;;;;;6.28;83.91;102161.81;5034971;28;20033;-54
2021/12/18 08:55:13;;;;;;;57.05;27.08;;;;;;;6.27;84.29;102157.44;5017196;28;20060;-54
2021/12/18 08:57:39;;;;;;;58.08;27.13;;;;;;;6.28;83.79;102161.81;5017252;28;20037;-54
2021/12/18 09:00:09;;;;;;;55.72;27.92;;;;;;;6.29;83.88;102162.69;5034753;28;20044;-54
2021/12/18 09:02:35;;;;;;;59.78;28.75;;;;;;;6.29;84.07;102166.16;5016867;28;20085;-54
2021/12/18 09:05:00;;;;;;;54.10;27.83;;;;;;;6.28;84.00;102158.31;5034706;28;20060;-54
2021/12/18 09:07:28;;;;;;;56.35;26.27;;;;;;;6.27;83.97;102156.53;5034697;28;20037;-55
2021/12/18 09:09:53;;;;;;;48.78;25.98;;;;;;;6.26;84.09;102163.38;5034498;28;20069;-54
2021/12/18 09:12:19;;;;;;;56.35;27.67;;;;;;;6.28;84.23;102163.47;5034549;28;20033;-54
2021/12/18 09:14:44;;;;;;;48.65;25.17;;;;;;;6.25;84.07;102161.59;5016877;28;20573;-55
2021/12/18 09:17:12;;;;;;;51.58;24.48;;;;;;;6.24;83.94;102158.09;5034529;28;20113;-54
2021/12/18 09:19:38;;;;;;;54.80;24.38;;;;;;;6.24;83.96;102152.06;5034600;28;20506;-54
2021/12/18 09:22:06;;;;;;;55.90;26.83;;;;;;;6.25;84.52;102162.47;5017256;28;20124;-54
2021/12/18 09:24:33;;;;;;;48.72;23.65;;;;;;;6.27;83.83;102161.69;5000611;28;20041;-54
2021/12/18 09:26:59;;;;;;;45.63;24.75;;;;;;;6.25;83.74;102162.47;5034185;28;20455;-55
2021/12/18 09:29:25;;;;;;;42.65;22.55;;;;;;;6.25;84.18;102172.78;5016041;28;20072;-54
2021/12/18 09:31:52;;;;;;;45.65;25.00;;;;;;;6.25;84.42;102165.03;5016797;28;20040;-54
2021/12/18 09:34:18;;;;;;;47.08;23.52;;;;;;;6.24;84.50;102167.53;5034141;28;20049;-54
2021/12/18 09:36:43;;;;;;;46.38;23.50;;;;;;;6.26;84.13;102165.97;5034255;28;20033;-54
2021/12/18 09:39:09;;;;;;;44.85;22.67;;;;;;;6.25;84.08;102175.34;5016421;28;20121;-55
2021/12/18 09:41:36;;;;;;;44.85;22.00;;;;;;;6.27;84.25;102171.97;5034060;28;20115;-55
2021/12/18 09:44:02;;;;;;;38.78;22.02;;;;;;;6.25;83.88;102165.03;4999966;28;20125;-54
2021/12/18 09:46:30;;;;;;;49.40;24.13;;;;;;;6.25;84.30;102174.47;5033808;28;20033;-54
2021/12/18 09:48:57;;;;;;;45.88;22.73;;;;;;;6.26;84.20;102165.97;5033862;28;20478;-55
2021/12/18 09:51:27;;;;;;;42.33;22.88;;;;;;;6.27;84.38;102161.69;5016199;28;20120;-54
2021/12/18 09:53:53;;;;;;;52.05;24.88;;;;;;;6.25;84.51;102156.44;5033947;28;20041;-54
2021/12/18 09:56:20;;;;;;;52.40;24.45;;;;;;;6.23;83.89;102161.47;5000039;28;20033;-54
2021/12/18 09:58:46;;;;;;;44.63;22.95;;;;;;;6.21;83.69;102165.66;5034253;28;20037;-55
2021/12/18 10:01:12;;;;;;;50.63;24.65;;;;;;;6.25;84.11;102161.59;5016236;28;20045;-55
2021/12/18 10:03:50;;;;;;;48.80;24.00;;;;;;;6.25;83.85;102156.44;5016075;28;20045;-54
2021/12/18 10:06:41;;;;;;;54.58;24.95;;;;;;;6.22;84.30;102159.72;5033742;28;20116;-56
2021/12/18 10:09:30;;;;;;;51.78;22.77;;;;;;;6.23;83.81;102152.88;5033542;28;20033;-54
2021/12/18 10:11:58;;;;;;;42.58;23.35;;;;;;;6.25;83.83;102153.88;5016027;28;20033;-54
2021/12/18 10:14:39;;;;;;;48.83;25.58;;;;;;;6.25;84.04;102157.31;5033581;28;20086;-54
2021/12/18 10:17:19;;;;;;;52.53;24.85;;;;;;;6.23;84.09;102147.72;5033487;28;20029;-55
2021/12/18 10:19:44;;;;;;;48.83;25.25;;;;;;;6.23;84.12;102140.00;5033775;28;20033;-54
2021/12/18 10:22:11;;;;;;;45.85;23.45;;;;;;;6.24;83.87;102146.94;5033677;28;20041;-55
2021/12/18 10:24:40;;;;;;;52.60;23.48;;;;;;;6.24;84.45;102141.78;5015880;28;20061;-55
2021/12/18 10:27:23;;;;;;;46.15;23.80;;;;;;;6.23;83.88;102137.41;4999576;28;20411;-54
2021/12/18 10:29:52;;;;;;;51.95;24.65;;;;;;;6.23;84.11;102142.56;5033215;28;20057;-55
2021/12/18 10:32:20;;;;;;;52.70;25.25;;;;;;;6.21;83.90;102139.91;4999524;28;20120;-54
2021/12/18 10:34:54;;;;;;;48.10;24.92;;;;;;;6.22;84.15;102144.25;4999327;28;20127;-54
2021/12/18 10:37:23;;;;;;;45.85;24.38;;;;;;;6.20;84.10;102135.53;5015563;28;20394;-54
2021/12/18 10:39:53;;;;;;;42.67;23.83;;;;;;;6.23;84.06;102140.00;5034238;28;20037;-54
2021/12/18 10:42:28;;;;;;;43.30;24.92;;;;;;;6.22;84.22;102135.63;5037338;28;20042;-54
2021/12/18 10:45:17;;;;;;;44.08;24.35;;;;;;;6.23;84.08;102135.72;5037710;28;20034;-55
2021/12/18 10:47:57;;;;;;;46.50;25.77;;;;;;;6.23;84.04;102134.84;5037254;28;20048;-54
2021/12/18 10:50:40;;;;;;;46.28;24.85;;;;;;;6.23;84.11;102140.00;5003617;28;20136;-55
2021/12/18 10:53:13;;;;;;;47.67;23.60;;;;;;;6.22;83.82;102128.81;5037203;28;20509;-55
2021/12/18 10:55:55;;;;;;;44.47;24.03;;;;;;;6.22;84.24;102128.81;5003844;28;20041;-55
2021/12/18 10:58:25;;;;;;;45.92;23.83;;;;;;;6.22;84.29;102126.25;5037146;28;20626;-54
2021/12/18 11:00:55;;;;;;;45.65;24.88;;;;;;;6.23;84.07;102128.00;5003065;28;20133;-54
2021/12/18 11:03:35;;;;;;;45.78;24.38;;;;;;;6.25;83.87;102128.13;5036373;28;20041;-54
2021/12/18 11:06:06;;;;;;;48.53;23.63;;;;;;;6.24;84.27;102124.63;5019523;28;20045;-54
2021/12/18 11:08:51;;;;;;;43.92;23.95;;;;;;;6.23;83.92;102119.38;5036927;28;20478;-54
2021/12/18 11:14:08;;;;;;;;;;;;;;;6.21;84.46;102110.66;5020216;28;20576;-54
2021/12/18 11:16:38;;;;;;;40.53;22.25;;;;;;;6.19;84.45;102109.66;5019893;28;19913;-54
2021/12/18 11:19:11;;;;;;;41.83;22.52;;;;;;;6.20;84.61;102114.03;5002895;28;20037;-54
2021/12/18 11:21:40;;;;;;;38.83;22.02;;;;;;;6.21;84.28;102108.09;5036844;28;20038;-54
2021/12/18 11:24:07;;;;;;;44.10;23.88;;;;;;;6.22;83.80;102108.22;5002947;28;20056;-54
2021/12/18 11:26:41;;;;;;;42.20;22.77;;;;;;;6.22;84.39;102102.16;5018786;28;20442;-54
2021/12/18 11:29:12;;;;;;;;;;;;;;;6.22;84.39;102097.00;5019343;28;20041;-54
2021/12/18 11:31:40;;;;;;;45.00;24.15;;;;;;;6.21;84.17;102092.63;5002707;28;20293;-54
2021/12/18 11:34:06;;;;;;;47.67;24.88;;;;;;;6.23;84.60;102093.63;5002680;28;20037;-54
2021/12/18 11:36:33;;;;;;;42.72;23.73;;;;;;;6.23;84.03;102093.63;5036378;28;20048;-54
2021/12/18 11:39:02;;;;;;;43.72;23.30;;;;;;;6.24;84.06;102092.84;5018676;28;20128;-54
2021/12/18 11:41:27;;;;;;;49.03;22.15;;;;;;;6.25;84.27;102084.34;5002540;28;20037;-54
2021/12/18 11:43:53;;;;;;;47.33;24.92;;;;;;;6.23;83.80;102076.50;5036120;28;20041;-54
2021/12/18 11:46:30;;;;;;;46.30;25.30;;;;;;;6.25;84.44;102079.19;5036282;28;20045;-54
2021/12/18 11:49:05;;;;;;;46.53;24.90;;;;;;;6.27;84.24;102081.84;5002111;28;20501;-55
2021/12/18 11:51:31;;;;;;;48.00;25.17;;;;;;;6.25;84.42;102080.06;5001884;28;20056;-54
2021/12/18 11:53:58;;;;;;;46.10;24.45;;;;;;;6.25;84.45;102079.19;5002249;28;20042;-55
2021/12/18 11:56:25;;;;;;;45.83;24.95;;;;;;;6.25;84.38;102069.75;5002614;28;20402;-54
2021/12/18 11:58:52;;;;;;;46.58;24.67;;;;;;;6.24;84.31;102074.81;5001942;28;20494;-55
2021/12/18 12:01:25;;;;;;;54.03;26.13;;;;;;;6.23;84.53;102079.06;5002133;28;20088;-54
2021/12/18 12:03:51;;;;;;;50.08;26.13;;;;;;;6.23;83.87;102078.19;5035751;28;20045;-54
2021/12/18 12:06:45;;;;;;;49.40;24.05;;;;;;;6.22;84.48;102072.16;5035612;28;20502;-54
2021/12/18 12:12:02;;;;;;;48.88;24.98;;;;;;;6.21;84.41;102062.66;5035836;28;20029;-54
2021/12/18 12:14:31;;;;;;;48.33;24.08;;;;;;;6.21;83.91;102064.31;5017909;28;20045;-54
2021/12/18 12:17:25;;;;;;;44.10;22.13;;;;;;;6.20;84.16;102065.09;5002141;28;20044;-54
2021/12/18 12:19:57;;;;;;;50.17;24.85;;;;;;;6.20;84.45;102057.38;5035739;28;20034;-54